Time;durP1;ratioP1;P1;durP2;ratioP2;P2;SDS_P1;SDS_P2;PMS_P1;PMS_P2;Temp;Humidity;BMP_temperature;BMP_pressure;BME280_temperature;BME280_humidity;BME280_pressure;Samples;Min_cycle;Max_cycle;Signal;HPM_P1;HPM_P2
2022/08/02 00:00:15;;;;;;;7.55;3.83;;;12.20;99.90;;;;;;5013294;28;20050;-76
2022/08/02 00:02:42;;;;;;;11.80;4.15;;;12.20;99.90;;;;;;5003174;28;20041;-76
2022/08/02 00:05:09;;;;;;;7.85;3.30;;;12.30;99.90;;;;;;5011953;28;20134;-77
2022/08/02 00:07:35;;;;;;;6.75;3.65;;;12.20;99.90;;;;;;5020279;28;20065;-77
2022/08/02 00:10:01;;;;;;;7.82;3.50;;;12.30;99.90;;;;;;5020896;28;20083;-77
2022/08/02 00:12:26;;;;;;;9.63;3.95;;;12.20;99.90;;;;;;5017856;28;20116;-77
2022/08/02 00:14:55;;;;;;;11.52;3.75;;;12.20;99.90;;;;;;5011616;28;20444;-77
2022/08/02 00:17:21;;;;;;;7.63;3.75;;;12.20;99.90;;;;;;4999023;28;20048;-76
2022/08/02 00:19:47;;;;;;;9.23;4.45;;;12.20;99.90;;;;;;4980324;28;20042;-76
2022/08/02 00:22:13;;;;;;;8.13;4.20;;;12.20;99.90;;;;;;4979244;28;20135;-76
2022/08/02 00:24:39;;;;;;;6.97;3.58;;;12.20;99.90;;;;;;5006970;28;20631;-76
2022/08/02 00:27:07;;;;;;;10.07;4.97;;;12.20;99.90;;;;;;5000523;28;20125;-76
2022/08/02 00:29:34;;;;;;;12.10;6.20;;;12.20;99.90;;;;;;4996809;28;20029;-76
2022/08/02 00:32:00;;;;;;;11.93;5.22;;;12.20;99.90;;;;;;5016776;28;20041;-76
2022/08/02 00:34:26;;;;;;;8.50;4.47;;;12.20;99.90;;;;;;4999308;28;20033;-76
2022/08/02 00:36:54;;;;;;;8.35;4.53;;;12.20;99.90;;;;;;5029959;28;20515;-76
2022/08/02 00:39:20;;;;;;;9.30;4.45;;;12.10;99.90;;;;;;4995947;28;20373;-76
2022/08/02 00:41:50;;;;;;;8.40;4.55;;;12.10;99.90;;;;;;4996595;28;20064;-76
2022/08/02 00:44:18;;;;;;;9.77;5.45;;;12.10;99.90;;;;;;5015124;28;20056;-76
2022/08/02 00:46:44;;;;;;;8.52;4.78;;;12.20;99.90;;;;;;5002506;28;20731;-76
2022/08/02 00:49:11;;;;;;;8.68;4.72;;;12.20;99.90;;;;;;5014627;28;21060;-76
2022/08/02 00:51:38;;;;;;;14.68;7.00;;;12.20;99.90;;;;;;4998618;28;20045;-76
2022/08/02 00:54:04;;;;;;;8.55;5.20;;;12.10;99.90;;;;;;4993652;28;20061;-77
2022/08/02 00:56:31;;;;;;;10.32;5.07;;;12.10;99.90;;;;;;4998181;28;20672;-77
2022/08/02 00:58:57;;;;;;;10.60;5.05;;;12.10;99.90;;;;;;4999656;28;20455;-77
2022/08/02 01:01:38;;;;;;;9.40;5.03;;;12.10;99.90;;;;;;5015588;28;20054;-77
2022/08/02 01:04:10;;;;;;;11.60;5.30;;;12.10;99.90;;;;;;4996882;28;20042;-77
2022/08/02 01:06:37;;;;;;;10.00;5.75;;;12.00;99.90;;;;;;5007361;28;20132;-77
2022/08/02 01:09:04;;;;;;;10.85;7.10;;;12.00;99.90;;;;;;5026716;28;20049;-77
2022/08/02 01:11:30;;;;;;;8.77;4.80;;;12.00;99.90;;;;;;5016827;28;20504;-77
2022/08/02 01:14:00;;;;;;;8.25;4.88;;;12.00;99.90;;;;;;5017961;28;20059;-77
2022/08/02 01:16:30;;;;;;;8.02;5.30;;;11.90;99.90;;;;;;5008455;28;20037;-77
2022/08/02 01:19:09;;;;;;;11.48;5.35;;;11.90;99.90;;;;;;5012908;28;20111;-76
2022/08/02 01:21:54;;;;;;;8.90;5.57;;;11.90;99.90;;;;;;5018400;28;20728;-77
2022/08/02 01:24:30;;;;;;;11.50;6.47;;;11.90;99.90;;;;;;5012667;28;20445;-77
2022/08/02 01:27:11;;;;;;;9.00;5.05;;;11.90;99.90;;;;;;5005296;28;20133;-76
2022/08/02 01:29:42;;;;;;;9.45;4.97;;;11.80;99.90;;;;;;5032689;28;20169;-77
2022/08/02 01:32:18;;;;;;;12.07;5.70;;;11.80;99.90;;;;;;4998032;28;20041;-77
2022/08/02 01:34:58;;;;;;;10.70;6.28;;;11.70;99.90;;;;;;5000635;28;20066;-76
2022/08/02 01:37:55;;;;;;;10.68;5.53;;;11.80;99.90;;;;;;5015239;28;20060;-77
2022/08/02 01:40:26;;;;;;;9.52;5.18;;;11.70;99.90;;;;;;5012642;28;20137;-77
2022/08/02 01:42:54;;;;;;;11.95;6.43;;;11.60;99.90;;;;;;5022305;28;20049;-78
2022/08/02 01:45:23;;;;;;;8.35;5.70;;;11.60;99.90;;;;;;5011896;28;20064;-77
2022/08/02 01:47:50;;;;;;;9.30;6.45;;;11.70;99.90;;;;;;5017663;28;20040;-77
2022/08/02 01:50:20;;;;;;;7.35;5.15;;;11.70;99.90;;;;;;5017527;28;20552;-77
2022/08/02 01:52:54;;;;;;;9.43;6.05;;;11.70;99.90;;;;;;5001512;28;20052;-77
2022/08/02 01:55:31;;;;;;;8.65;6.03;;;11.70;99.90;;;;;;5021251;28;20053;-77
2022/08/02 01:58:02;;;;;;;8.20;6.03;;;11.70;99.90;;;;;;5019061;28;20603;-76
2022/08/02 02:00:32;;;;;;;11.00;5.63;;;11.70;99.90;;;;;;5009460;28;20579;-77
2022/08/02 02:02:59;;;;;;;;;;;11.70;99.90;;;;;;5020694;28;20050;-77
2022/08/02 02:05:29;;;;;;;9.93;6.60;;;11.60;99.90;;;;;;5021561;28;19928;-77
2022/08/02 02:07:57;;;;;;;11.38;5.70;;;11.60;99.90;;;;;;5012149;28;20042;-77
2022/08/02 02:10:30;;;;;;;11.63;6.03;;;11.60;99.90;;;;;;5023402;28;20053;-77
2022/08/02 02:13:00;;;;;;;8.88;5.05;;;11.60;99.90;;;;;;5006226;28;20054;-77
2022/08/02 02:15:26;;;;;;;;;;;11.60;99.90;;;;;;5007961;28;20136;-77
2022/08/02 02:17:57;;;;;;;11.90;6.68;;;11.60;99.90;;;;;;5008590;28;19925;-77
2022/08/02 02:20:25;;;;;;;9.95;6.32;;;11.50;99.90;;;;;;4987421;28;20114;-77
2022/08/02 02:22:51;;;;;;;13.27;7.07;;;11.50;99.90;;;;;;5009851;28;20365;-77
2022/08/02 02:25:20;;;;;;;9.65;6.60;;;11.50;99.90;;;;;;5024447;28;20046;-77
2022/08/02 02:27:56;;;;;;;9.43;6.28;;;11.50;99.90;;;;;;4998727;28;20045;-76
2022/08/02 02:30:28;;;;;;;14.20;8.48;;;11.50;99.90;;;;;;5027563;28;20040;-77
2022/08/02 02:32:57;;;;;;;8.05;5.85;;;11.50;99.90;;;;;;5009495;28;20049;-77
2022/08/02 02:35:30;;;;;;;10.32;6.60;;;11.50;99.90;;;;;;5026605;28;20046;-77
2022/08/02 02:37:59;;;;;;;9.15;7.10;;;11.50;99.90;;;;;;5017392;28;20709;-76
2022/08/02 02:40:27;;;;;;;11.57;7.68;;;11.50;99.90;;;;;;5016490;28;20571;-77
2022/08/02 02:42:55;;;;;;;11.05;7.57;;;11.60;99.90;;;;;;5019637;28;20038;-77
2022/08/02 02:45:21;;;;;;;10.75;8.18;;;11.60;99.90;;;;;;5007337;28;20052;-77
2022/08/02 02:47:48;;;;;;;15.55;8.48;;;11.70;99.90;;;;;;4991814;28;20129;-78
2022/08/02 02:50:16;;;;;;;9.23;6.95;;;11.70;99.90;;;;;;4992894;28;20045;-77
2022/08/02 02:52:44;;;;;;;13.23;8.35;;;11.70;99.90;;;;;;4999314;28;20041;-78
2022/08/02 02:55:11;;;;;;;10.60;7.95;;;11.70;99.90;;;;;;5019589;28;20085;-77
2022/08/02 02:57:37;;;;;;;11.88;8.18;;;11.70;99.90;;;;;;4976710;28;20529;-77
2022/08/02 03:00:07;;;;;;;13.30;8.65;;;11.70;99.90;;;;;;5019286;28;20053;-77
2022/08/02 03:02:35;;;;;;;10.20;7.97;;;11.80;99.90;;;;;;5015569;28;20042;-77
2022/08/02 03:05:02;;;;;;;10.85;7.70;;;11.70;99.90;;;;;;5018336;28;20144;-77
2022/08/02 03:07:28;;;;;;;13.18;9.05;;;11.70;99.90;;;;;;5008555;28;20050;-77
2022/08/02 03:09:54;;;;;;;15.23;7.68;;;11.70;99.90;;;;;;5025368;28;20045;-77
2022/08/02 03:12:24;;;;;;;14.68;9.50;;;11.70;99.90;;;;;;5009898;28;20529;-77
2022/08/02 03:14:50;;;;;;;12.60;8.40;;;11.70;99.90;;;;;;5024733;28;20041;-78
2022/08/02 03:17:16;;;;;;;10.90;8.02;;;11.80;99.90;;;;;;5014443;28;20052;-77
2022/08/02 03:19:41;;;;;;;13.27;8.88;;;11.70;99.90;;;;;;5025211;28;20041;-77
2022/08/02 03:22:07;;;;;;;12.85;8.10;;;11.70;99.90;;;;;;5020265;28;20049;-77
2022/08/02 03:24:33;;;;;;;11.25;8.10;;;11.70;99.90;;;;;;5017130;28;20060;-77
2022/08/02 03:26:59;;;;;;;11.65;8.35;;;11.70;99.90;;;;;;5023151;28;20042;-77
2022/08/02 03:29:25;;;;;;;12.80;8.35;;;11.70;99.90;;;;;;5005879;28;20054;-76
2022/08/02 03:31:51;;;;;;;15.18;8.60;;;11.70;99.90;;;;;;5008136;28;20042;-77
2022/08/02 03:34:17;;;;;;;14.40;9.00;;;11.80;99.90;;;;;;4996260;28;20393;-76
2022/08/02 03:36:47;;;;;;;13.45;8.73;;;11.80;99.90;;;;;;4984199;28;20048;-77
2022/08/02 03:39:13;;;;;;;10.20;7.20;;;11.80;99.90;;;;;;5019826;28;20111;-77
2022/08/02 03:41:39;;;;;;;12.82;8.57;;;11.80;99.90;;;;;;5022966;28;20127;-77
2022/08/02 03:44:06;;;;;;;12.02;7.90;;;11.80;99.90;;;;;;4991101;28;20547;-77
2022/08/02 03:46:33;;;;;;;12.05;8.73;;;11.90;99.90;;;;;;5005887;28;20033;-77
2022/08/02 03:48:59;;;;;;;9.55;7.65;;;11.90;99.90;;;;;;4989881;28;20136;-77
2022/08/02 03:51:25;;;;;;;13.98;8.77;;;11.90;99.90;;;;;;5023188;28;20075;-77
2022/08/02 03:53:54;;;;;;;11.13;7.85;;;11.90;99.90;;;;;;5018017;28;20530;-77
2022/08/02 03:56:20;;;;;;;12.30;8.07;;;11.90;99.90;;;;;;5007256;28;20536;-77
2022/08/02 03:58:46;;;;;;;13.65;9.13;;;11.90;99.90;;;;;;5004726;28;20041;-77
2022/08/02 04:01:12;;;;;;;12.25;8.43;;;11.90;99.90;;;;;;5000427;28;20125;-77
2022/08/02 04:03:38;;;;;;;14.60;8.02;;;11.90;99.90;;;;;;5014293;28;20408;-77
2022/08/02 04:06:04;;;;;;;15.00;8.32;;;11.90;99.90;;;;;;5007013;28;20045;-77
2022/08/02 04:08:30;;;;;;;16.92;10.35;;;12.00;99.90;;;;;;5015988;28;20053;-77
2022/08/02 04:13:40;;;;;;;11.25;8.07;;;12.00;99.90;;;;;;5023011;28;20072;-77
2022/08/02 04:16:20;;;;;;;17.80;9.77;;;12.00;99.90;;;;;;5023870;28;20159;-77
2022/08/02 04:18:54;;;;;;;12.20;8.40;;;12.00;99.90;;;;;;4984150;28;20055;-77
2022/08/02 04:21:22;;;;;;;13.38;8.38;;;12.10;99.90;;;;;;5003754;28;20319;-77
2022/08/02 04:23:50;;;;;;;16.02;9.57;;;12.10;99.90;;;;;;5018340;28;20061;-77
2022/08/02 04:26:17;;;;;;;13.45;8.43;;;12.10;99.90;;;;;;5016543;28;20095;-77
2022/08/02 04:28:43;;;;;;;12.88;9.13;;;12.10;99.90;;;;;;5018941;28;20224;-77
2022/08/02 04:31:09;;;;;;;12.30;8.98;;;12.20;99.90;;;;;;5014823;28;20045;-77
2022/08/02 04:33:36;;;;;;;18.55;8.77;;;12.20;99.90;;;;;;5002035;28;20481;-77
2022/08/02 04:36:04;;;;;;;16.15;9.70;;;12.20;99.90;;;;;;5023103;28;20058;-76
2022/08/02 04:38:29;;;;;;;14.48;8.82;;;12.20;99.90;;;;;;5007073;28;20461;-77
2022/08/02 04:40:55;;;;;;;13.38;8.85;;;12.30;99.90;;;;;;5004680;28;20120;-77
2022/08/02 04:43:25;;;;;;;15.75;10.75;;;12.30;99.90;;;;;;5023324;28;20163;-77
2022/08/02 04:45:53;;;;;;;12.47;8.00;;;12.30;99.90;;;;;;5023723;28;20075;-77
2022/08/02 04:48:20;;;;;;;15.02;9.98;;;12.30;99.90;;;;;;4997197;28;20594;-77
2022/08/02 04:50:47;;;;;;;18.05;10.40;;;12.40;99.90;;;;;;5008815;28;20041;-77
2022/08/02 04:53:12;;;;;;;17.15;9.90;;;12.40;99.90;;;;;;5010612;28;20054;-77
2022/08/02 04:55:38;;;;;;;16.05;9.82;;;12.50;99.90;;;;;;5025546;28;20124;-77
2022/08/02 04:58:04;;;;;;;16.20;9.23;;;12.50;99.90;;;;;;5018578;28;20042;-77
2022/08/02 05:00:31;;;;;;;13.75;10.32;;;12.50;99.90;;;;;;5019289;28;20076;-78
2022/08/02 05:02:58;;;;;;;13.77;9.50;;;12.60;99.90;;;;;;4989836;28;20153;-77
2022/08/02 05:05:25;;;;;;;13.25;9.20;;;12.70;99.90;;;;;;5033441;28;20037;-77
2022/08/02 05:07:54;;;;;;;12.32;8.90;;;12.70;99.90;;;;;;5021083;28;20054;-77
2022/08/02 05:10:20;;;;;;;15.05;10.25;;;12.80;99.90;;;;;;5023135;28;20059;-77
2022/08/02 05:12:46;;;;;;;14.60;9.68;;;12.80;99.90;;;;;;5007190;28;20618;-77
2022/08/02 05:15:15;;;;;;;14.68;10.35;;;12.80;99.90;;;;;;5012776;28;20050;-78
2022/08/02 05:17:42;;;;;;;14.18;9.15;;;12.90;99.90;;;;;;5028163;28;20084;-78
2022/08/02 05:20:08;;;;;;;12.80;8.93;;;12.90;99.90;;;;;;4995378;28;20046;-78
2022/08/02 05:22:34;;;;;;;11.75;8.73;;;13.00;99.90;;;;;;5016614;28;20037;-78
2022/08/02 05:24:59;;;;;;;12.85;9.00;;;13.00;99.90;;;;;;4993022;28;20064;-77
2022/08/02 05:27:25;;;;;;;13.32;9.10;;;13.10;99.90;;;;;;5016700;28;20050;-78
2022/08/02 05:29:51;;;;;;;12.82;9.18;;;13.10;99.90;;;;;;4994781;28;20471;-79
2022/08/02 05:32:17;;;;;;;16.20;9.65;;;13.20;99.90;;;;;;5008235;28;20144;-77
2022/08/02 05:34:43;;;;;;;13.05;8.00;;;13.20;99.90;;;;;;5030257;28;20106;-78
2022/08/02 05:37:09;;;;;;;16.20;10.15;;;13.30;99.90;;;;;;5021277;28;20049;-78
2022/08/02 05:39:34;;;;;;;15.25;9.82;;;13.30;99.90;;;;;;5009909;28;20467;-77
2022/08/02 05:42:00;;;;;;;12.55;9.05;;;13.30;99.90;;;;;;5019258;28;20049;-78
2022/08/02 05:44:26;;;;;;;13.18;8.68;;;13.40;99.90;;;;;;5012759;28;20056;-78
2022/08/02 05:46:52;;;;;;;14.70;8.80;;;13.40;99.90;;;;;;5022386;28;20041;-78
2022/08/02 05:49:18;;;;;;;11.73;8.23;;;13.50;99.90;;;;;;5007935;28;20042;-77
2022/08/02 05:52:17;;;;;;;14.52;9.45;;;13.60;99.90;;;;;;5005106;28;20029;-78
2022/08/02 05:55:00;;;;;;;14.18;8.82;;;13.60;99.90;;;;;;5021949;28;20058;-78
2022/08/02 05:57:32;;;;;;;13.15;8.70;;;13.70;99.90;;;;;;5022054;28;20081;-78
2022/08/02 06:00:08;;;;;;;11.25;7.88;;;13.80;99.90;;;;;;5024136;28;20092;-78
2022/08/02 06:02:57;;;;;;;11.40;8.20;;;13.90;99.90;;;;;;5016707;28;20107;-79
2022/08/02 06:05:26;;;;;;;13.03;8.90;;;14.00;99.90;;;;;;5015250;28;20057;-78
2022/08/02 06:07:54;;;;;;;12.07;8.23;;;14.10;99.90;;;;;;5019923;28;20042;-78
2022/08/02 06:10:21;;;;;;;13.43;8.07;;;14.10;99.90;;;;;;5027891;28;20142;-78
2022/08/02 06:12:55;;;;;;;10.98;8.25;;;14.20;99.90;;;;;;5009496;28;20037;-78
2022/08/02 06:15:20;;;;;;;11.60;8.15;;;14.30;99.90;;;;;;5023293;28;20053;-78
2022/08/02 06:17:47;;;;;;;13.38;7.45;;;14.40;99.90;;;;;;5010386;28;20049;-78
2022/08/02 06:20:14;;;;;;;13.82;7.72;;;14.50;99.90;;;;;;4993336;28;20071;-78
2022/08/02 06:22:43;;;;;;;10.45;6.82;;;14.60;99.90;;;;;;5021739;28;20045;-77
2022/08/02 06:25:11;;;;;;;12.52;7.90;;;14.70;99.90;;;;;;5007770;28;20077;-78
2022/08/02 06:27:41;;;;;;;9.45;6.45;;;14.80;99.90;;;;;;5027089;28;20098;-78
2022/08/02 06:30:08;;;;;;;;;;;15.00;99.90;;;;;;4996064;28;20089;-78
2022/08/02 06:32:34;;;;;;;9.77;6.53;;;15.10;99.90;;;;;;5026342;28;19921;-78
2022/08/02 06:35:01;;;;;;;11.40;6.70;;;15.20;99.90;;;;;;5014563;28;20331;-78
2022/08/02 06:37:37;;;;;;;10.30;6.68;;;15.30;99.90;;;;;;4993787;28;20501;-78
2022/08/02 06:40:39;;;;;;;16.70;7.32;;;15.40;99.90;;;;;;5009272;28;20567;-78
2022/08/02 06:43:12;;;;;;;14.07;6.60;;;15.60;99.90;;;;;;5025869;28;20101;-78
2022/08/02 06:45:38;;;;;;;13.73;6.63;;;15.70;99.90;;;;;;5019976;28;20077;-78
2022/08/02 06:48:05;;;;;;;11.60;7.00;;;15.80;99.90;;;;;;5024986;28;20520;-78
2022/08/02 06:50:31;;;;;;;10.00;6.30;;;15.90;99.90;;;;;;5042218;28;20495;-78
2022/08/02 06:52:57;;;;;;;12.10;6.75;;;16.00;99.90;;;;;;5016792;28;20515;-78
2022/08/02 06:55:23;;;;;;;10.82;6.45;;;16.10;99.90;;;;;;5024924;28;20042;-78
2022/08/02 06:57:49;;;;;;;10.52;5.53;;;16.20;99.90;;;;;;5006385;28;20227;-78
2022/08/02 07:00:15;;;;;;;9.88;6.93;;;16.20;99.90;;;;;;5013643;28;20053;-78
2022/08/02 07:02:41;;;;;;;11.48;6.30;;;16.30;99.90;;;;;;5025399;28;20038;-78
2022/08/02 07:05:08;;;;;;;9.90;5.82;;;16.50;99.90;;;;;;5006635;28;20045;-78
2022/08/02 07:07:34;;;;;;;8.45;5.32;;;16.60;99.90;;;;;;5024823;28;20041;-78
2022/08/02 07:10:00;;;;;;;9.55;5.15;;;16.70;99.90;;;;;;5006502;28;20071;-78
2022/08/02 07:12:26;;;;;;;11.88;5.88;;;16.90;99.90;;;;;;5007587;28;20054;-78
2022/08/02 07:14:55;;;;;;;7.90;5.13;;;17.00;99.90;;;;;;4993301;28;20089;-78
2022/08/02 07:17:21;;;;;;;8.80;5.00;;;17.30;99.90;;;;;;5024526;28;20562;-78
2022/08/02 07:19:47;;;;;;;8.80;4.32;;;17.30;99.90;;;;;;5008482;28;20061;-78
2022/08/02 07:22:13;;;;;;;10.05;4.75;;;17.40;99.90;;;;;;4995439;28;20045;-79
2022/08/02 07:24:39;;;;;;;7.28;3.95;;;17.50;99.90;;;;;;5008329;28;20054;-78
2022/08/02 07:27:08;;;;;;;6.70;4.00;;;17.60;99.90;;;;;;5022150;28;20573;-78
2022/08/02 07:29:34;;;;;;;9.25;4.07;;;17.60;99.90;;;;;;5005792;28;20048;-78
2022/08/02 07:32:00;;;;;;;7.25;4.28;;;17.60;99.90;;;;;;4989547;28;20041;-78
2022/08/02 07:34:26;;;;;;;10.90;4.32;;;17.60;99.90;;;;;;5023479;28;20050;-77
2022/08/02 07:36:54;;;;;;;8.07;3.53;;;17.60;99.90;;;;;;5028351;28;20064;-78
2022/08/02 07:39:20;;;;;;;5.35;2.95;;;17.70;99.90;;;;;;5004261;28;20373;-77
2022/08/02 07:41:50;;;;;;;7.18;3.10;;;17.90;99.90;;;;;;5003355;28;20125;-78
2022/08/02 07:44:16;;;;;;;8.32;2.83;;;18.10;99.90;;;;;;5002325;28;20269;-78
2022/08/02 07:46:43;;;;;;;7.82;2.63;;;18.20;99.90;;;;;;4990916;28;20056;-77
2022/08/02 07:49:09;;;;;;;4.70;2.40;;;18.40;99.90;;;;;;5001618;28;20055;-77
2022/08/02 07:51:35;;;;;;;6.45;2.58;;;18.60;99.90;;;;;;5023347;28;20120;-78
2022/08/02 07:54:01;;;;;;;7.55;3.05;;;18.70;99.90;;;;;;5023266;28;20057;-77
2022/08/02 07:56:27;;;;;;;7.65;2.65;;;18.80;99.90;;;;;;5007847;28;20056;-78
2022/08/02 07:58:53;;;;;;;5.80;3.05;;;19.00;99.90;;;;;;5012275;28;20042;-77
2022/08/02 08:01:25;;;;;;;5.95;2.80;;;19.10;99.90;;;;;;5025197;28;20103;-78
2022/08/02 08:03:50;;;;;;;6.97;2.63;;;19.30;99.90;;;;;;5007104;28;20085;-79
2022/08/02 08:06:16;;;;;;;7.18;2.60;;;19.40;99.90;;;;;;5022656;28;20092;-79
2022/08/02 08:08:42;;;;;;;5.28;2.30;;;19.50;99.90;;;;;;5023363;28;20108;-79
2022/08/02 08:11:08;;;;;;;7.78;2.67;;;19.70;99.90;;;;;;5004040;28;20104;-79
2022/08/02 08:13:34;;;;;;;6.20;2.95;;;19.80;99.90;;;;;;5017893;28;20133;-79
2022/08/02 08:16:01;;;;;;;6.95;2.47;;;19.90;99.90;;;;;;4986403;28;20512;-78
2022/08/02 08:18:26;;;;;;;6.45;2.10;;;20.10;99.90;;;;;;5014840;28;20053;-78
2022/08/02 08:21:11;;;;;;;4.95;2.13;;;20.20;99.90;;;;;;5021668;28;20037;-79
2022/08/02 08:23:37;;;;;;;5.07;1.95;;;20.40;99.90;;;;;;5008022;28;20518;-78
2022/08/02 08:26:04;;;;;;;6.40;2.10;;;20.50;99.90;;;;;;5021354;28;20548;-78
2022/08/02 08:28:29;;;;;;;7.55;2.05;;;20.80;99.90;;;;;;5000263;28;20049;-77
2022/08/02 08:30:56;;;;;;;5.68;1.90;;;21.00;99.90;;;;;;5020869;28;20053;-78
2022/08/02 08:33:22;;;;;;;3.03;1.50;;;21.00;99.90;;;;;;5004897;28;20041;-78
2022/08/02 08:35:47;;;;;;;5.75;1.80;;;21.10;99.90;;;;;;5001492;28;20060;-78
2022/08/02 08:38:14;;;;;;;5.18;2.20;;;21.20;99.90;;;;;;4999475;28;20508;-78
2022/08/02 08:40:41;;;;;;;6.28;1.92;;;21.20;99.90;;;;;;5018937;28;20041;-78
2022/08/02 08:43:07;;;;;;;6.40;1.67;;;21.10;99.90;;;;;;5016020;28;20058;-78
2022/08/02 08:45:32;;;;;;;4.75;1.75;;;21.20;99.90;;;;;;5011360;28;20038;-79
2022/08/02 08:48:11;;;;;;;5.95;1.90;;;21.30;99.90;;;;;;5018705;28;20037;-77
2022/08/02 08:50:41;;;;;;;4.18;1.58;;;21.50;99.90;;;;;;5018976;28;20092;-78
2022/08/02 08:53:07;;;;;;;;;;;21.60;99.90;;;;;;5022109;28;20057;-78
2022/08/02 08:55:35;;;;;;;3.85;1.58;;;21.80;99.90;;;;;;5018571;28;20298;-79
2022/08/02 08:58:03;;;;;;;6.80;1.80;;;21.90;99.90;;;;;;5013743;28;20393;-78
2022/08/02 09:00:31;;;;;;;5.72;1.50;;;22.00;98.50;;;;;;5002752;28;20511;-78
2022/08/02 09:02:58;;;;;;;3.95;1.80;;;22.00;98.70;;;;;;5023673;28;20053;-77
2022/08/02 09:05:24;;;;;;;4.45;1.50;;;22.10;99.50;;;;;;5006109;28;20521;-77
2022/08/02 09:07:52;;;;;;;3.65;1.65;;;22.20;97.30;;;;;;5007120;28;20046;-77
2022/08/02 09:10:38;;;;;;;4.07;1.70;;;22.30;97.00;;;;;;5015559;28;20103;-78
2022/08/02 09:13:14;;;;;;;4.07;1.50;;;22.50;98.30;;;;;;5017994;28;20379;-77
2022/08/02 09:15:42;;;;;;;4.05;1.50;;;22.60;96.60;;;;;;5023022;28;20121;-78
2022/08/02 09:18:08;;;;;;;4.50;1.77;;;22.80;96.20;;;;;;5023611;28;20049;-78
2022/08/02 09:20:49;;;;;;;3.03;1.40;;;22.90;96.00;;;;;;5007620;28;20085;-80
2022/08/02 09:23:15;;;;;;;4.10;1.52;;;23.00;93.90;;;;;;5021325;28;20050;-75
2022/08/02 09:25:41;;;;;;;3.97;1.48;;;23.10;94.10;;;;;;5008408;28;20116;-75
2022/08/02 09:28:06;;;;;;;6.70;1.95;;;23.20;94.40;;;;;;5021233;28;20128;-76
2022/08/02 09:30:41;;;;;;;5.28;1.60;;;23.30;95.30;;;;;;5014711;28;20045;-75
2022/08/02 09:33:08;;;;;;;3.03;1.52;;;23.50;95.10;;;;;;5023618;28;20045;-76
2022/08/02 09:35:36;;;;;;;5.07;1.65;;;23.60;95.20;;;;;;5017205;28;20198;-74
2022/08/02 09:38:12;;;;;;;4.38;1.90;;;23.80;95.40;;;;;;5019673;28;20053;-74
2022/08/02 09:40:40;;;;;;;5.30;1.70;;;23.80;94.00;;;;;;5022753;28;20057;-74
2022/08/02 09:43:07;;;;;;;4.43;1.88;;;23.80;93.60;;;;;;5002728;28;20701;-74
2022/08/02 09:45:34;;;;;;;5.03;2.33;;;23.70;94.20;;;;;;5016731;28;20523;-75
2022/08/02 09:48:10;;;;;;;6.47;1.80;;;23.70;94.50;;;;;;4985638;28;20068;-74
2022/08/02 09:50:41;;;;;;;6.55;1.98;;;23.70;95.30;;;;;;5018857;28;20453;-74
2022/08/02 09:53:13;;;;;;;7.97;2.50;;;23.70;95.80;;;;;;5018835;28;20073;-74
2022/08/02 09:55:40;;;;;;;4.38;1.98;;;23.80;95.50;;;;;;5006278;28;20049;-74
2022/08/02 09:58:19;;;;;;;5.60;2.58;;;24.00;96.70;;;;;;4997935;28;20088;-75
2022/08/02 10:00:55;;;;;;;6.68;2.63;;;24.20;95.50;;;;;;4998775;28;20064;-77
2022/08/02 10:03:22;;;;;;;6.18;2.85;;;24.30;96.90;;;;;;5027210;28;20492;-75
2022/08/02 10:05:50;;;;;;;6.38;2.55;;;24.40;96.10;;;;;;5012973;28;20329;-76
2022/08/02 10:08:16;;;;;;;7.55;3.20;;;24.50;95.90;;;;;;5006693;28;20038;-76
2022/08/02 10:10:43;;;;;;;7.20;3.22;;;24.50;95.60;;;;;;5025757;28;20347;-75
2022/08/02 10:13:10;;;;;;;5.68;3.03;;;24.50;97.10;;;;;;5021101;28;20061;-77
2022/08/02 10:15:36;;;;;;;7.40;3.10;;;24.50;95.90;;;;;;5009165;28;20079;-75
2022/08/02 10:18:04;;;;;;;8.18;3.25;;;24.60;96.70;;;;;;5023589;28;20495;-75
2022/08/02 10:20:35;;;;;;;6.38;2.90;;;24.60;96.10;;;;;;5024930;28;20037;-76
2022/08/02 10:23:02;;;;;;;6.18;2.85;;;24.70;96.60;;;;;;5022064;28;20587;-76
2022/08/02 10:25:29;;;;;;;6.47;2.83;;;24.80;97.80;;;;;;5016037;28;20432;-76
2022/08/02 10:27:56;;;;;;;5.82;2.97;;;24.90;97.90;;;;;;5022489;28;20029;-76
2022/08/02 10:30:25;;;;;;;7.65;3.53;;;25.10;98.40;;;;;;5010847;28;20045;-75
2022/08/02 10:32:53;;;;;;;5.00;3.38;;;25.30;97.90;;;;;;5025472;28;20098;-75
2022/08/02 10:35:22;;;;;;;5.35;2.97;;;25.40;97.30;;;;;;4999732;28;20823;-75
2022/08/02 10:37:54;;;;;;;7.20;3.28;;;25.50;97.50;;;;;;5022862;28;20100;-75
2022/08/02 10:40:25;;;;;;;5.10;2.88;;;25.60;96.50;;;;;;5003907;28;20496;-75
2022/08/02 10:42:59;;;;;;;9.88;3.33;;;25.70;97.70;;;;;;5001095;28;20053;-76
2022/08/02 10:45:25;;;;;;;9.57;2.80;;;25.90;97.00;;;;;;5037576;28;20509;-75
2022/08/02 10:48:02;;;;;;;4.88;3.15;;;25.90;95.00;;;;;;5026690;28;20056;-75
2022/08/02 10:50:54;;;;;;;6.35;3.63;;;26.00;95.10;;;;;;4997740;28;20097;-75
2022/08/02 10:53:25;;;;;;;7.00;3.15;;;26.10;94.60;;;;;;5006232;28;20045;-75
2022/08/02 10:55:53;;;;;;;6.22;3.50;;;26.20;96.00;;;;;;5018816;28;20052;-76
2022/08/02 10:58:21;;;;;;;7.35;3.97;;;26.30;95.00;;;;;;5004600;28;20077;-78
2022/08/02 11:00:48;;;;;;;8.18;3.20;;;26.30;93.70;;;;;;5021570;28;20067;-76
2022/08/02 11:03:38;;;;;;;8.40;3.70;;;26.30;95.00;;;;;;5018467;28;20068;-76
2022/08/02 11:06:12;;;;;;;7.93;3.03;;;26.20;93.90;;;;;;5001979;28;20100;-75
2022/08/02 11:08:38;;;;;;;12.75;3.83;;;26.10;93.30;;;;;;5006018;28;20049;-76
2022/08/02 11:11:10;;;;;;;6.50;2.72;;;26.20;94.40;;;;;;5000108;28;20128;-75
2022/08/02 11:13:59;;;;;;;6.85;3.00;;;26.30;94.80;;;;;;5007623;28;20033;-75
2022/08/02 11:16:54;;;;;;;5.85;3.40;;;26.50;94.90;;;;;;5024083;28;20566;-76
2022/08/02 11:19:20;;;;;;;6.70;3.10;;;26.70;94.20;;;;;;5026987;28;20409;-75
2022/08/02 11:22:04;;;;;;;7.03;3.45;;;26.80;94.20;;;;;;5008381;28;20041;-75
2022/08/02 11:24:32;;;;;;;4.40;3.17;;;26.80;92.10;;;;;;5021971;28;20048;-74
2022/08/02 11:27:19;;;;;;;4.75;2.92;;;26.70;92.40;;;;;;5014602;28;20566;-75
2022/08/02 11:29:47;;;;;;;6.05;3.33;;;26.70;93.80;;;;;;5004157;28;20516;-75
2022/08/02 11:32:26;;;;;;;5.25;3.35;;;26.70;94.40;;;;;;5017231;28;20057;-75
2022/08/02 11:34:53;;;;;;;5.45;3.17;;;26.80;94.00;;;;;;5007008;28;20377;-75
2022/08/02 11:37:34;;;;;;;6.25;3.03;;;26.80;92.60;;;;;;5032383;28;20053;-75
2022/08/02 11:40:01;;;;;;;4.13;3.00;;;26.70;93.10;;;;;;5023712;28;20036;-75
2022/08/02 11:42:38;;;;;;;5.68;2.95;;;26.60;92.90;;;;;;5006100;28;20049;-75
2022/08/02 11:45:05;;;;;;;5.20;2.50;;;26.50;94.00;;;;;;5033732;28;20061;-75
2022/08/02 11:47:32;;;;;;;4.78;2.40;;;26.50;93.90;;;;;;5024742;28;20041;-75
2022/08/02 11:50:05;;;;;;;7.07;2.33;;;26.70;91.70;;;;;;5023288;28;20042;-75
2022/08/02 11:52:36;;;;;;;6.65;2.55;;;26.80;92.20;;;;;;5023368;28;20048;-76
2022/08/02 11:55:06;;;;;;;6.68;2.90;;;27.00;91.90;;;;;;5020760;28;20674;-75
2022/08/02 11:57:33;;;;;;;5.10;2.75;;;26.90;89.20;;;;;;5018267;28;20045;-75
2022/08/02 12:00:02;;;;;;;6.28;2.42;;;26.80;90.90;;;;;;5025620;28;20330;-75
2022/08/02 12:02:34;;;;;;;5.07;2.10;;;26.60;91.50;;;;;;5016017;28;20029;-75
2022/08/02 12:05:01;;;;;;;4.60;2.58;;;26.60;92.70;;;;;;5022634;28;20057;-75
2022/08/02 12:07:33;;;;;;;4.90;2.38;;;26.70;93.60;;;;;;5011926;28;20041;-75
2022/08/02 12:10:01;;;;;;;4.25;2.20;;;26.70;93.20;;;;;;5021760;28;20075;-75
2022/08/02 12:12:27;;;;;;;2.90;1.73;;;26.80;92.10;;;;;;5021858;28;20581;-75
2022/08/02 12:14:53;;;;;;;4.65;2.60;;;26.80;92.10;;;;;;5009216;28;20507;-77
2022/08/02 12:20:09;;;;;;;4.55;2.20;;;26.80;93.30;;;;;;5016190;28;20095;-77
2022/08/02 12:22:37;;;;;;;5.88;2.22;;;26.80;91.10;;;;;;5012758;28;20076;-76
2022/08/02 12:25:18;;;;;;;6.45;2.95;;;26.70;90.60;;;;;;5021179;28;20073;-76
2022/08/02 12:27:44;;;;;;;4.65;2.90;;;26.70;91.20;;;;;;5022220;28;20060;-76
2022/08/02 12:30:12;;;;;;;5.53;3.25;;;26.70;92.30;;;;;;5024061;28;20080;-76
2022/08/02 12:32:39;;;;;;;5.97;3.15;;;26.70;92.80;;;;;;5025132;28;20496;-75
2022/08/02 12:35:13;;;;;;;7.13;3.80;;;26.80;92.10;;;;;;5026320;28;20053;-75
2022/08/02 12:37:45;;;;;;;4.97;3.20;;;26.70;92.00;;;;;;5010091;28;20046;-75
2022/08/02 12:40:30;;;;;;;4.63;2.78;;;26.60;92.80;;;;;;5009103;28;20096;-76
2022/08/02 12:42:57;;;;;;;4.53;2.53;;;26.50;94.30;;;;;;5023169;28;20548;-76
2022/08/02 12:45:24;;;;;;;4.85;3.60;;;26.60;95.30;;;;;;5003647;28;20046;-76
2022/08/02 12:47:52;;;;;;;9.38;3.65;;;26.60;95.00;;;;;;5022092;28;20030;-76
2022/08/02 12:50:36;;;;;;;5.82;4.00;;;26.60;94.40;;;;;;5023878;28;20046;-76
2022/08/02 12:53:12;;;;;;;5.43;3.90;;;26.50;95.60;;;;;;5001097;28;20045;-76
2022/08/02 12:55:50;;;;;;;6.03;4.20;;;26.40;96.60;;;;;;5017927;28;20099;-76
2022/08/02 12:58:19;;;;;;;7.75;3.63;;;26.30;96.00;;;;;;4996805;28;20045;-77